Terminal Aerodrome Forecast
Issued by NWS

Home | Current Version | Previous Version | Graphics & Text | Print | Product List | Glossary On
Versions: 1 2 3 4 5 6 7 8 9 10 11 12 13 14 15 16
000
FTUS43 KGRB 032159 AAA
TAFRHI
TAF AMD
KRHI 032159Z 0322/0418 32006KT P6SM VCTS BKN040CB
      TEMPO 0322/0324 3SM RA BKN030
     FM040000 33007KT P6SM SCT040 BKN100
     FM040600 36009KT P6SM SCT025 BKN040
     FM041200 35010KT P6SM SCT040
      TEMPO 0412/0415 BKN040=

USA.gov is the U.S. government's official web portal to all federal, state and local government web resources and services.